sensor_id;sensor_type;location;lat;lon;timestamp;P1;durP1;ratioP1;P2;durP2;ratioP2
19854;SDS011;10088;47.946;2.532;2024-01-30T00:01:05;9.10;;;4.57;;
19854;SDS011;10088;47.946;2.532;2024-01-30T00:03:31;6.63;;;4.10;;
19854;SDS011;10088;47.946;2.532;2024-01-30T00:05:56;6.87;;;4.20;;
19854;SDS011;10088;47.946;2.532;2024-01-30T00:08:21;6.83;;;4.07;;
19854;SDS011;10088;47.946;2.532;2024-01-30T00:10:47;5.50;;;3.70;;
19854;SDS011;10088;47.946;2.532;2024-01-30T00:13:12;5.47;;;3.80;;
19854;SDS011;10088;47.946;2.532;2024-01-30T00:15:39;5.90;;;3.60;;
19854;SDS011;10088;47.946;2.532;2024-01-30T00:18:04;5.83;;;3.60;;
19854;SDS011;10088;47.946;2.532;2024-01-30T00:20:29;6.10;;;3.53;;
19854;SDS011;10088;47.946;2.532;2024-01-30T00:22:55;4.80;;;3.23;;
19854;SDS011;10088;47.946;2.532;2024-01-30T00:25:20;5.53;;;3.70;;
19854;SDS011;10088;47.946;2.532;2024-01-30T00:27:45;5.70;;;3.37;;
19854;SDS011;10088;47.946;2.532;2024-01-30T00:30:11;9.53;;;4.00;;
19854;SDS011;10088;47.946;2.532;2024-01-30T00:32:36;4.63;;;3.23;;
19854;SDS011;10088;47.946;2.532;2024-01-30T00:35:02;5.43;;;3.20;;
19854;SDS011;10088;47.946;2.532;2024-01-30T00:37:27;5.53;;;3.30;;
19854;SDS011;10088;47.946;2.532;2024-01-30T00:39:52;3.07;;;2.47;;
19854;SDS011;10088;47.946;2.532;2024-01-30T00:42:18;3.77;;;2.50;;
19854;SDS011;10088;47.946;2.532;2024-01-30T00:44:43;4.03;;;2.30;;
19854;SDS011;10088;47.946;2.532;2024-01-30T00:47:08;3.37;;;2.57;;
19854;SDS011;10088;47.946;2.532;2024-01-30T00:49:33;5.53;;;2.50;;
19854;SDS011;10088;47.946;2.532;2024-01-30T00:51:59;5.00;;;2.67;;
19854;SDS011;10088;47.946;2.532;2024-01-30T00:54:24;2.87;;;2.27;;
19854;SDS011;10088;47.946;2.532;2024-01-30T00:56:49;5.57;;;2.40;;
19854;SDS011;10088;47.946;2.532;2024-01-30T00:59:14;5.17;;;2.87;;
19854;SDS011;10088;47.946;2.532;2024-01-30T01:01:40;4.50;;;2.53;;
19854;SDS011;10088;47.946;2.532;2024-01-30T01:04:05;5.67;;;3.33;;
19854;SDS011;10088;47.946;2.532;2024-01-30T01:06:30;4.03;;;2.57;;
19854;SDS011;10088;47.946;2.532;2024-01-30T01:08:55;4.60;;;2.87;;
19854;SDS011;10088;47.946;2.532;2024-01-30T01:11:21;2.73;;;2.30;;
19854;SDS011;10088;47.946;2.532;2024-01-30T01:13:47;5.83;;;3.00;;
19854;SDS011;10088;47.946;2.532;2024-01-30T01:16:12;3.50;;;2.60;;
19854;SDS011;10088;47.946;2.532;2024-01-30T01:18:38;3.67;;;2.80;;
19854;SDS011;10088;47.946;2.532;2024-01-30T01:21:03;7.07;;;3.50;;
19854;SDS011;10088;47.946;2.532;2024-01-30T01:23:28;5.50;;;2.90;;
19854;SDS011;10088;47.946;2.532;2024-01-30T01:25:54;5.37;;;3.17;;
19854;SDS011;10088;47.946;2.532;2024-01-30T01:28:20;6.70;;;3.07;;
19854;SDS011;10088;47.946;2.532;2024-01-30T01:30:45;6.70;;;3.27;;
19854;SDS011;10088;47.946;2.532;2024-01-30T01:33:11;6.77;;;2.97;;
19854;SDS011;10088;47.946;2.532;2024-01-30T01:35:39;4.23;;;2.73;;
19854;SDS011;10088;47.946;2.532;2024-01-30T01:38:05;3.63;;;2.53;;
19854;SDS011;10088;47.946;2.532;2024-01-30T01:40:30;8.07;;;4.00;;
19854;SDS011;10088;47.946;2.532;2024-01-30T01:42:55;3.77;;;2.50;;
19854;SDS011;10088;47.946;2.532;2024-01-30T01:45:21;4.10;;;2.77;;
19854;SDS011;10088;47.946;2.532;2024-01-30T01:47:47;4.27;;;2.97;;
19854;SDS011;10088;47.946;2.532;2024-01-30T01:50:13;4.73;;;3.13;;
19854;SDS011;10088;47.946;2.532;2024-01-30T01:52:40;4.77;;;3.17;;
19854;SDS011;10088;47.946;2.532;2024-01-30T01:55:05;5.33;;;2.83;;
19854;SDS011;10088;47.946;2.532;2024-01-30T01:57:31;3.97;;;2.50;;
19854;SDS011;10088;47.946;2.532;2024-01-30T01:59:56;4.60;;;3.00;;
19854;SDS011;10088;47.946;2.532;2024-01-30T02:02:21;4.60;;;3.10;;
19854;SDS011;10088;47.946;2.532;2024-01-30T02:04:48;2.90;;;2.40;;
19854;SDS011;10088;47.946;2.532;2024-01-30T02:07:13;3.17;;;2.10;;
19854;SDS011;10088;47.946;2.532;2024-01-30T02:09:39;5.27;;;2.80;;
19854;SDS011;10088;47.946;2.532;2024-01-30T02:12:04;9.67;;;2.80;;
19854;SDS011;10088;47.946;2.532;2024-01-30T02:14:29;5.17;;;2.97;;
19854;SDS011;10088;47.946;2.532;2024-01-30T02:16:55;5.23;;;2.73;;
19854;SDS011;10088;47.946;2.532;2024-01-30T02:19:20;4.43;;;2.63;;
19854;SDS011;10088;47.946;2.532;2024-01-30T02:21:45;3.93;;;2.50;;
19854;SDS011;10088;47.946;2.532;2024-01-30T02:24:11;8.03;;;3.10;;
19854;SDS011;10088;47.946;2.532;2024-01-30T02:26:36;4.97;;;2.87;;
19854;SDS011;10088;47.946;2.532;2024-01-30T02:29:01;4.73;;;2.60;;
19854;SDS011;10088;47.946;2.532;2024-01-30T02:31:27;5.17;;;2.83;;
19854;SDS011;10088;47.946;2.532;2024-01-30T02:33:52;3.47;;;3.00;;
19854;SDS011;10088;47.946;2.532;2024-01-30T02:36:17;5.83;;;2.90;;
19854;SDS011;10088;47.946;2.532;2024-01-30T02:38:43;7.07;;;2.70;;
19854;SDS011;10088;47.946;2.532;2024-01-30T02:41:08;4.90;;;3.13;;
19854;SDS011;10088;47.946;2.532;2024-01-30T02:43:33;4.23;;;2.83;;
19854;SDS011;10088;47.946;2.532;2024-01-30T02:45:59;3.87;;;2.83;;
19854;SDS011;10088;47.946;2.532;2024-01-30T02:48:25;8.93;;;3.00;;
19854;SDS011;10088;47.946;2.532;2024-01-30T02:50:51;4.37;;;2.87;;
19854;SDS011;10088;47.946;2.532;2024-01-30T02:53:16;4.67;;;2.63;;
19854;SDS011;10088;47.946;2.532;2024-01-30T02:55:41;4.60;;;2.90;;
19854;SDS011;10088;47.946;2.532;2024-01-30T02:58:06;6.20;;;2.70;;
19854;SDS011;10088;47.946;2.532;2024-01-30T03:00:32;3.97;;;2.80;;
19854;SDS011;10088;47.946;2.532;2024-01-30T03:02:57;5.07;;;2.80;;
19854;SDS011;10088;47.946;2.532;2024-01-30T03:05:22;5.27;;;2.63;;
19854;SDS011;10088;47.946;2.532;2024-01-30T03:07:47;3.53;;;2.67;;
19854;SDS011;10088;47.946;2.532;2024-01-30T03:10:13;4.77;;;3.00;;
19854;SDS011;10088;47.946;2.532;2024-01-30T03:12:38;8.03;;;3.23;;
19854;SDS011;10088;47.946;2.532;2024-01-30T03:15:03;6.30;;;3.20;;
19854;SDS011;10088;47.946;2.532;2024-01-30T03:17:29;5.33;;;2.80;;
19854;SDS011;10088;47.946;2.532;2024-01-30T03:19:54;4.43;;;2.97;;
19854;SDS011;10088;47.946;2.532;2024-01-30T03:22:19;5.87;;;3.00;;
19854;SDS011;10088;47.946;2.532;2024-01-30T03:24:45;5.77;;;3.37;;
19854;SDS011;10088;47.946;2.532;2024-01-30T03:27:10;7.77;;;3.47;;
19854;SDS011;10088;47.946;2.532;2024-01-30T03:29:35;4.10;;;3.10;;
19854;SDS011;10088;47.946;2.532;2024-01-30T03:32:01;5.47;;;3.10;;
19854;SDS011;10088;47.946;2.532;2024-01-30T03:34:26;4.23;;;3.27;;
19854;SDS011;10088;47.946;2.532;2024-01-30T03:36:51;6.33;;;3.27;;
19854;SDS011;10088;47.946;2.532;2024-01-30T03:39:16;5.17;;;3.73;;
19854;SDS011;10088;47.946;2.532;2024-01-30T03:41:42;6.23;;;3.93;;
19854;SDS011;10088;47.946;2.532;2024-01-30T03:44:08;6.03;;;3.87;;
19854;SDS011;10088;47.946;2.532;2024-01-30T03:46:33;4.90;;;3.47;;
19854;SDS011;10088;47.946;2.532;2024-01-30T03:48:59;6.30;;;4.37;;
19854;SDS011;10088;47.946;2.532;2024-01-30T03:51:24;5.00;;;3.43;;
19854;SDS011;10088;47.946;2.532;2024-01-30T03:53:49;5.90;;;3.97;;
19854;SDS011;10088;47.946;2.532;2024-01-30T03:56:15;4.53;;;2.97;;
19854;SDS011;10088;47.946;2.532;2024-01-30T03:58:40;6.90;;;4.17;;
19854;SDS011;10088;47.946;2.532;2024-01-30T04:01:05;7.13;;;3.70;;
19854;SDS011;10088;47.946;2.532;2024-01-30T04:03:30;4.77;;;3.20;;
19854;SDS011;10088;47.946;2.532;2024-01-30T04:05:56;7.77;;;4.20;;
19854;SDS011;10088;47.946;2.532;2024-01-30T04:08:21;5.13;;;3.77;;
19854;SDS011;10088;47.946;2.532;2024-01-30T04:10:47;8.47;;;4.60;;
19854;SDS011;10088;47.946;2.532;2024-01-30T04:13:12;8.33;;;4.73;;
19854;SDS011;10088;47.946;2.532;2024-01-30T04:15:38;8.10;;;3.47;;
19854;SDS011;10088;47.946;2.532;2024-01-30T04:18:03;6.27;;;3.50;;
19854;SDS011;10088;47.946;2.532;2024-01-30T04:20:29;7.07;;;3.20;;
19854;SDS011;10088;47.946;2.532;2024-01-30T04:22:54;9.43;;;5.20;;
19854;SDS011;10088;47.946;2.532;2024-01-30T04:25:19;18.17;;;9.87;;
19854;SDS011;10088;47.946;2.532;2024-01-30T04:27:44;14.67;;;6.27;;
19854;SDS011;10088;47.946;2.532;2024-01-30T04:30:10;11.03;;;5.70;;
19854;SDS011;10088;47.946;2.532;2024-01-30T04:32:35;8.23;;;4.60;;
19854;SDS011;10088;47.946;2.532;2024-01-30T04:35:01;9.17;;;4.70;;
19854;SDS011;10088;47.946;2.532;2024-01-30T04:37:26;6.50;;;4.03;;
19854;SDS011;10088;47.946;2.532;2024-01-30T04:39:52;6.07;;;3.37;;
19854;SDS011;10088;47.946;2.532;2024-01-30T04:42:17;3.77;;;2.77;;
19854;SDS011;10088;47.946;2.532;2024-01-30T04:44:43;5.47;;;3.03;;
19854;SDS011;10088;47.946;2.532;2024-01-30T04:47:08;4.00;;;3.20;;
19854;SDS011;10088;47.946;2.532;2024-01-30T04:49:36;4.53;;;3.27;;
19854;SDS011;10088;47.946;2.532;2024-01-30T04:52:01;3.37;;;2.40;;
19854;SDS011;10088;47.946;2.532;2024-01-30T04:54:26;3.73;;;2.57;;
19854;SDS011;10088;47.946;2.532;2024-01-30T04:56:52;5.73;;;3.40;;
19854;SDS011;10088;47.946;2.532;2024-01-30T04:59:17;6.70;;;2.80;;
19854;SDS011;10088;47.946;2.532;2024-01-30T05:01:42;7.10;;;2.20;;
19854;SDS011;10088;47.946;2.532;2024-01-30T05:04:08;6.10;;;2.90;;
19854;SDS011;10088;47.946;2.532;2024-01-30T05:06:33;4.33;;;2.37;;
19854;SDS011;10088;47.946;2.532;2024-01-30T05:08:59;6.10;;;2.90;;
19854;SDS011;10088;47.946;2.532;2024-01-30T05:11:24;3.33;;;2.43;;
19854;SDS011;10088;47.946;2.532;2024-01-30T05:13:49;5.23;;;2.70;;
19854;SDS011;10088;47.946;2.532;2024-01-30T05:16:14;4.40;;;2.40;;
19854;SDS011;10088;47.946;2.532;2024-01-30T05:18:40;4.50;;;2.90;;
19854;SDS011;10088;47.946;2.532;2024-01-30T05:21:05;2.10;;;1.60;;
19854;SDS011;10088;47.946;2.532;2024-01-30T05:23:30;3.10;;;2.37;;
19854;SDS011;10088;47.946;2.532;2024-01-30T05:25:55;4.33;;;2.87;;
19854;SDS011;10088;47.946;2.532;2024-01-30T05:28:21;4.17;;;2.83;;
19854;SDS011;10088;47.946;2.532;2024-01-30T05:30:46;3.97;;;2.53;;
19854;SDS011;10088;47.946;2.532;2024-01-30T05:33:11;2.60;;;2.07;;
19854;SDS011;10088;47.946;2.532;2024-01-30T05:35:37;6.27;;;4.07;;
19854;SDS011;10088;47.946;2.532;2024-01-30T05:38:03;8.67;;;5.00;;
19854;SDS011;10088;47.946;2.532;2024-01-30T05:40:28;7.37;;;2.70;;
19854;SDS011;10088;47.946;2.532;2024-01-30T05:42:53;13.87;;;6.83;;
19854;SDS011;10088;47.946;2.532;2024-01-30T05:45:18;7.40;;;3.67;;
19854;SDS011;10088;47.946;2.532;2024-01-30T05:47:44;6.40;;;3.37;;
19854;SDS011;10088;47.946;2.532;2024-01-30T05:50:09;9.63;;;4.77;;
19854;SDS011;10088;47.946;2.532;2024-01-30T05:52:34;3.70;;;2.67;;
19854;SDS011;10088;47.946;2.532;2024-01-30T05:55:00;7.20;;;4.27;;
19854;SDS011;10088;47.946;2.532;2024-01-30T05:57:25;12.10;;;4.37;;
19854;SDS011;10088;47.946;2.532;2024-01-30T05:59:50;8.43;;;4.43;;
19854;SDS011;10088;47.946;2.532;2024-01-30T06:02:17;4.70;;;2.40;;
19854;SDS011;10088;47.946;2.532;2024-01-30T06:04:42;13.57;;;5.70;;
19854;SDS011;10088;47.946;2.532;2024-01-30T06:07:07;7.87;;;4.70;;
19854;SDS011;10088;47.946;2.532;2024-01-30T06:09:33;9.30;;;5.40;;
19854;SDS011;10088;47.946;2.532;2024-01-30T06:11:58;13.33;;;6.33;;
19854;SDS011;10088;47.946;2.532;2024-01-30T06:14:23;6.30;;;4.00;;
19854;SDS011;10088;47.946;2.532;2024-01-30T06:16:49;6.63;;;4.67;;
19854;SDS011;10088;47.946;2.532;2024-01-30T06:19:14;9.13;;;5.30;;
19854;SDS011;10088;47.946;2.532;2024-01-30T06:21:39;5.70;;;4.33;;
19854;SDS011;10088;47.946;2.532;2024-01-30T06:24:05;10.20;;;5.00;;
19854;SDS011;10088;47.946;2.532;2024-01-30T06:26:30;6.03;;;3.90;;
19854;SDS011;10088;47.946;2.532;2024-01-30T06:28:55;7.10;;;3.97;;
19854;SDS011;10088;47.946;2.532;2024-01-30T06:31:20;4.77;;;3.67;;
19854;SDS011;10088;47.946;2.532;2024-01-30T06:33:46;9.40;;;4.50;;
19854;SDS011;10088;47.946;2.532;2024-01-30T06:36:12;4.43;;;3.53;;
19854;SDS011;10088;47.946;2.532;2024-01-30T06:38:37;4.57;;;3.70;;
19854;SDS011;10088;47.946;2.532;2024-01-30T06:41:02;7.03;;;4.20;;
19854;SDS011;10088;47.946;2.532;2024-01-30T06:43:28;5.87;;;3.60;;
19854;SDS011;10088;47.946;2.532;2024-01-30T06:45:53;4.13;;;3.27;;
19854;SDS011;10088;47.946;2.532;2024-01-30T06:48:18;6.97;;;4.57;;
19854;SDS011;10088;47.946;2.532;2024-01-30T06:50:43;8.50;;;3.93;;
19854;SDS011;10088;47.946;2.532;2024-01-30T06:53:10;4.60;;;3.60;;
19854;SDS011;10088;47.946;2.532;2024-01-30T06:55:35;5.13;;;3.30;;
19854;SDS011;10088;47.946;2.532;2024-01-30T06:58:00;5.60;;;4.23;;
19854;SDS011;10088;47.946;2.532;2024-01-30T07:00:26;6.13;;;4.67;;
19854;SDS011;10088;47.946;2.532;2024-01-30T07:02:51;6.33;;;3.53;;
19854;SDS011;10088;47.946;2.532;2024-01-30T07:05:16;6.27;;;3.43;;
19854;SDS011;10088;47.946;2.532;2024-01-30T07:07:42;5.30;;;3.73;;
19854;SDS011;10088;47.946;2.532;2024-01-30T07:10:07;5.80;;;3.83;;
19854;SDS011;10088;47.946;2.532;2024-01-30T07:12:33;5.80;;;3.73;;
19854;SDS011;10088;47.946;2.532;2024-01-30T07:14:58;6.03;;;3.53;;
19854;SDS011;10088;47.946;2.532;2024-01-30T07:17:24;8.67;;;5.03;;
19854;SDS011;10088;47.946;2.532;2024-01-30T07:19:50;3.80;;;2.53;;
19854;SDS011;10088;47.946;2.532;2024-01-30T07:22:15;4.43;;;3.50;;
19854;SDS011;10088;47.946;2.532;2024-01-30T07:24:43;4.63;;;3.10;;
19854;SDS011;10088;47.946;2.532;2024-01-30T07:27:13;6.53;;;3.17;;
19854;SDS011;10088;47.946;2.532;2024-01-30T07:29:39;3.13;;;2.80;;
19854;SDS011;10088;47.946;2.532;2024-01-30T07:32:04;7.07;;;3.77;;
19854;SDS011;10088;47.946;2.532;2024-01-30T07:34:30;9.77;;;5.67;;
19854;SDS011;10088;47.946;2.532;2024-01-30T07:36:55;6.57;;;3.37;;
19854;SDS011;10088;47.946;2.532;2024-01-30T07:39:20;8.13;;;5.23;;
19854;SDS011;10088;47.946;2.532;2024-01-30T07:41:46;6.93;;;4.63;;
19854;SDS011;10088;47.946;2.532;2024-01-30T07:44:11;21.93;;;8.13;;
19854;SDS011;10088;47.946;2.532;2024-01-30T07:46:36;10.10;;;5.57;;
19854;SDS011;10088;47.946;2.532;2024-01-30T07:49:02;4.50;;;3.50;;
19854;SDS011;10088;47.946;2.532;2024-01-30T07:51:27;5.80;;;4.00;;
19854;SDS011;10088;47.946;2.532;2024-01-30T07:53:54;7.80;;;4.17;;
19854;SDS011;10088;47.946;2.532;2024-01-30T07:56:19;4.60;;;3.03;;
19854;SDS011;10088;47.946;2.532;2024-01-30T07:58:44;8.77;;;5.17;;
19854;SDS011;10088;47.946;2.532;2024-01-30T08:01:10;5.17;;;3.23;;
19854;SDS011;10088;47.946;2.532;2024-01-30T08:03:35;8.57;;;3.87;;
19854;SDS011;10088;47.946;2.532;2024-01-30T08:06:02;4.73;;;3.47;;
19854;SDS011;10088;47.946;2.532;2024-01-30T08:08:27;5.37;;;3.43;;
19854;SDS011;10088;47.946;2.532;2024-01-30T08:10:53;4.03;;;2.87;;
19854;SDS011;10088;47.946;2.532;2024-01-30T08:13:18;5.50;;;2.90;;
19854;SDS011;10088;47.946;2.532;2024-01-30T08:15:43;4.77;;;3.53;;
19854;SDS011;10088;47.946;2.532;2024-01-30T08:18:09;6.10;;;3.30;;
19854;SDS011;10088;47.946;2.532;2024-01-30T08:20:34;6.07;;;3.63;;
19854;SDS011;10088;47.946;2.532;2024-01-30T08:22:59;4.93;;;3.80;;
19854;SDS011;10088;47.946;2.532;2024-01-30T08:25:25;5.20;;;2.80;;
19854;SDS011;10088;47.946;2.532;2024-01-30T08:27:51;5.93;;;3.17;;
19854;SDS011;10088;47.946;2.532;2024-01-30T08:30:16;8.37;;;3.43;;
19854;SDS011;10088;47.946;2.532;2024-01-30T08:32:41;5.90;;;3.07;;
19854;SDS011;10088;47.946;2.532;2024-01-30T08:35:06;5.57;;;2.70;;
19854;SDS011;10088;47.946;2.532;2024-01-30T08:37:32;5.13;;;3.20;;
19854;SDS011;10088;47.946;2.532;2024-01-30T08:39:57;3.70;;;3.00;;
19854;SDS011;10088;47.946;2.532;2024-01-30T08:42:22;7.13;;;3.30;;
19854;SDS011;10088;47.946;2.532;2024-01-30T08:44:51;4.37;;;2.80;;
19854;SDS011;10088;47.946;2.532;2024-01-30T08:47:18;5.47;;;2.73;;
19854;SDS011;10088;47.946;2.532;2024-01-30T08:49:43;3.50;;;2.63;;
19854;SDS011;10088;47.946;2.532;2024-01-30T08:52:09;3.80;;;2.87;;
19854;SDS011;10088;47.946;2.532;2024-01-30T08:54:34;3.77;;;2.27;;
19854;SDS011;10088;47.946;2.532;2024-01-30T08:57:00;5.63;;;3.20;;
19854;SDS011;10088;47.946;2.532;2024-01-30T08:59:25;4.47;;;3.10;;
19854;SDS011;10088;47.946;2.532;2024-01-30T09:01:50;2.77;;;2.47;;
19854;SDS011;10088;47.946;2.532;2024-01-30T09:04:18;3.97;;;2.53;;
19854;SDS011;10088;47.946;2.532;2024-01-30T09:06:43;6.90;;;3.03;;
19854;SDS011;10088;47.946;2.532;2024-01-30T09:09:09;4.37;;;2.97;;
19854;SDS011;10088;47.946;2.532;2024-01-30T09:11:34;3.03;;;2.47;;
19854;SDS011;10088;47.946;2.532;2024-01-30T09:14:00;4.20;;;2.57;;
19854;SDS011;10088;47.946;2.532;2024-01-30T09:16:25;2.97;;;1.90;;
19854;SDS011;10088;47.946;2.532;2024-01-30T09:18:50;3.93;;;2.60;;
19854;SDS011;10088;47.946;2.532;2024-01-30T09:21:15;3.90;;;3.10;;
19854;SDS011;10088;47.946;2.532;2024-01-30T09:23:41;3.57;;;2.10;;
19854;SDS011;10088;47.946;2.532;2024-01-30T09:26:06;3.67;;;2.67;;
19854;SDS011;10088;47.946;2.532;2024-01-30T09:28:31;5.57;;;2.30;;
19854;SDS011;10088;47.946;2.532;2024-01-30T09:30:57;3.23;;;2.27;;
19854;SDS011;10088;47.946;2.532;2024-01-30T09:33:22;4.47;;;2.50;;
19854;SDS011;10088;47.946;2.532;2024-01-30T09:35:47;4.80;;;3.20;;
19854;SDS011;10088;47.946;2.532;2024-01-30T09:38:13;3.33;;;2.20;;
19854;SDS011;10088;47.946;2.532;2024-01-30T09:40:38;3.43;;;2.03;;
19854;SDS011;10088;47.946;2.532;2024-01-30T09:43:03;6.23;;;2.70;;
19854;SDS011;10088;47.946;2.532;2024-01-30T09:45:29;3.77;;;2.27;;
19854;SDS011;10088;47.946;2.532;2024-01-30T09:47:54;3.60;;;2.30;;
19854;SDS011;10088;47.946;2.532;2024-01-30T09:50:20;2.83;;;2.30;;
19854;SDS011;10088;47.946;2.532;2024-01-30T09:52:46;4.03;;;2.53;;
19854;SDS011;10088;47.946;2.532;2024-01-30T09:55:11;4.60;;;2.43;;
19854;SDS011;10088;47.946;2.532;2024-01-30T09:57:37;6.00;;;2.37;;
19854;SDS011;10088;47.946;2.532;2024-01-30T10:00:03;3.97;;;2.10;;
19854;SDS011;10088;47.946;2.532;2024-01-30T10:02:29;2.67;;;2.07;;
19854;SDS011;10088;47.946;2.532;2024-01-30T10:04:54;3.07;;;2.40;;
19854;SDS011;10088;47.946;2.532;2024-01-30T10:07:19;4.17;;;2.73;;
19854;SDS011;10088;47.946;2.532;2024-01-30T10:09:45;2.57;;;2.17;;
19854;SDS011;10088;47.946;2.532;2024-01-30T10:12:11;4.07;;;2.63;;
19854;SDS011;10088;47.946;2.532;2024-01-30T10:14:40;4.20;;;2.20;;
19854;SDS011;10088;47.946;2.532;2024-01-30T10:17:06;4.77;;;2.50;;
19854;SDS011;10088;47.946;2.532;2024-01-30T10:19:31;3.40;;;2.40;;
19854;SDS011;10088;47.946;2.532;2024-01-30T10:21:57;6.20;;;3.27;;
19854;SDS011;10088;47.946;2.532;2024-01-30T10:24:28;3.60;;;2.50;;
19854;SDS011;10088;47.946;2.532;2024-01-30T10:26:54;4.17;;;2.40;;
19854;SDS011;10088;47.946;2.532;2024-01-30T10:29:19;3.63;;;2.47;;
19854;SDS011;10088;47.946;2.532;2024-01-30T10:31:45;3.70;;;2.03;;
19854;SDS011;10088;47.946;2.532;2024-01-30T10:34:10;5.57;;;2.37;;
19854;SDS011;10088;47.946;2.532;2024-01-30T10:36:39;3.63;;;2.60;;
19854;SDS011;10088;47.946;2.532;2024-01-30T10:39:06;4.10;;;2.60;;
19854;SDS011;10088;47.946;2.532;2024-01-30T10:41:31;5.07;;;2.30;;
19854;SDS011;10088;47.946;2.532;2024-01-30T10:44:08;2.37;;;2.17;;
19854;SDS011;10088;47.946;2.532;2024-01-30T10:46:33;3.63;;;2.50;;
19854;SDS011;10088;47.946;2.532;2024-01-30T10:49:00;2.97;;;2.67;;
19854;SDS011;10088;47.946;2.532;2024-01-30T10:51:28;5.30;;;3.23;;
19854;SDS011;10088;47.946;2.532;2024-01-30T10:53:54;5.03;;;2.30;;
19854;SDS011;10088;47.946;2.532;2024-01-30T10:56:20;3.50;;;2.17;;
19854;SDS011;10088;47.946;2.532;2024-01-30T10:58:46;3.00;;;2.00;;
19854;SDS011;10088;47.946;2.532;2024-01-30T11:01:12;5.83;;;2.63;;
19854;SDS011;10088;47.946;2.532;2024-01-30T11:03:37;4.70;;;2.00;;
19854;SDS011;10088;47.946;2.532;2024-01-30T11:06:03;5.07;;;2.17;;
19854;SDS011;10088;47.946;2.532;2024-01-30T11:08:28;4.00;;;2.70;;
19854;SDS011;10088;47.946;2.532;2024-01-30T11:10:57;4.73;;;2.63;;
19854;SDS011;10088;47.946;2.532;2024-01-30T11:13:26;4.33;;;2.60;;
19854;SDS011;10088;47.946;2.532;2024-01-30T11:15:51;6.27;;;3.10;;
19854;SDS011;10088;47.946;2.532;2024-01-30T11:18:23;3.83;;;2.47;;
19854;SDS011;10088;47.946;2.532;2024-01-30T11:20:49;3.60;;;2.83;;
19854;SDS011;10088;47.946;2.532;2024-01-30T11:23:14;4.60;;;2.57;;
19854;SDS011;10088;47.946;2.532;2024-01-30T11:25:40;3.07;;;2.53;;
19854;SDS011;10088;47.946;2.532;2024-01-30T11:28:05;3.80;;;2.50;;
19854;SDS011;10088;47.946;2.532;2024-01-30T11:30:31;4.40;;;2.33;;
19854;SDS011;10088;47.946;2.532;2024-01-30T11:33:07;4.47;;;2.77;;
19854;SDS011;10088;47.946;2.532;2024-01-30T11:35:37;4.93;;;3.00;;
19854;SDS011;10088;47.946;2.532;2024-01-30T11:38:04;3.87;;;2.50;;
19854;SDS011;10088;47.946;2.532;2024-01-30T11:40:30;6.67;;;3.40;;
19854;SDS011;10088;47.946;2.532;2024-01-30T11:42:55;7.10;;;2.77;;
19854;SDS011;10088;47.946;2.532;2024-01-30T11:45:21;4.60;;;2.83;;
19854;SDS011;10088;47.946;2.532;2024-01-30T11:47:46;6.73;;;3.30;;
19854;SDS011;10088;47.946;2.532;2024-01-30T11:50:12;3.63;;;2.83;;
19854;SDS011;10088;47.946;2.532;2024-01-30T11:52:37;5.27;;;3.03;;
19854;SDS011;10088;47.946;2.532;2024-01-30T11:55:03;7.43;;;3.10;;
19854;SDS011;10088;47.946;2.532;2024-01-30T11:57:28;5.83;;;3.07;;
19854;SDS011;10088;47.946;2.532;2024-01-30T11:59:54;3.97;;;3.10;;
19854;SDS011;10088;47.946;2.532;2024-01-30T12:02:19;7.07;;;4.00;;
19854;SDS011;10088;47.946;2.532;2024-01-30T12:04:44;6.30;;;3.27;;
19854;SDS011;10088;47.946;2.532;2024-01-30T12:07:10;6.97;;;3.33;;
19854;SDS011;10088;47.946;2.532;2024-01-30T12:09:35;4.83;;;3.00;;
19854;SDS011;10088;47.946;2.532;2024-01-30T12:12:00;7.10;;;3.23;;
19854;SDS011;10088;47.946;2.532;2024-01-30T12:14:26;6.30;;;3.50;;
19854;SDS011;10088;47.946;2.532;2024-01-30T12:16:51;6.00;;;3.20;;
19854;SDS011;10088;47.946;2.532;2024-01-30T12:19:23;7.70;;;3.80;;
19854;SDS011;10088;47.946;2.532;2024-01-30T12:21:58;7.70;;;3.20;;
19854;SDS011;10088;47.946;2.532;2024-01-30T12:24:27;4.63;;;3.00;;
19854;SDS011;10088;47.946;2.532;2024-01-30T12:26:58;4.83;;;3.40;;
19854;SDS011;10088;47.946;2.532;2024-01-30T12:29:24;4.23;;;3.10;;
19854;SDS011;10088;47.946;2.532;2024-01-30T12:31:52;6.27;;;3.80;;
19854;SDS011;10088;47.946;2.532;2024-01-30T12:34:17;4.80;;;3.50;;
19854;SDS011;10088;47.946;2.532;2024-01-30T12:36:43;6.93;;;3.87;;
19854;SDS011;10088;47.946;2.532;2024-01-30T12:39:10;6.43;;;3.40;;
19854;SDS011;10088;47.946;2.532;2024-01-30T12:41:36;5.37;;;3.47;;
19854;SDS011;10088;47.946;2.532;2024-01-30T12:44:01;7.40;;;4.03;;
19854;SDS011;10088;47.946;2.532;2024-01-30T12:46:29;5.20;;;3.30;;
19854;SDS011;10088;47.946;2.532;2024-01-30T12:48:55;5.37;;;3.27;;
19854;SDS011;10088;47.946;2.532;2024-01-30T12:51:20;4.87;;;3.87;;
19854;SDS011;10088;47.946;2.532;2024-01-30T12:53:45;5.37;;;3.30;;
19854;SDS011;10088;47.946;2.532;2024-01-30T12:56:12;7.57;;;4.60;;
19854;SDS011;10088;47.946;2.532;2024-01-30T12:58:38;4.60;;;3.80;;
19854;SDS011;10088;47.946;2.532;2024-01-30T13:01:03;4.90;;;3.83;;
19854;SDS011;10088;47.946;2.532;2024-01-30T13:03:28;6.17;;;4.07;;
19854;SDS011;10088;47.946;2.532;2024-01-30T13:05:54;5.33;;;3.80;;
19854;SDS011;10088;47.946;2.532;2024-01-30T13:08:20;9.17;;;3.73;;
19854;SDS011;10088;47.946;2.532;2024-01-30T13:10:45;5.57;;;4.20;;
19854;SDS011;10088;47.946;2.532;2024-01-30T13:13:10;7.90;;;4.50;;
19854;SDS011;10088;47.946;2.532;2024-01-30T13:15:35;8.40;;;4.07;;
19854;SDS011;10088;47.946;2.532;2024-01-30T13:18:01;7.97;;;4.07;;
19854;SDS011;10088;47.946;2.532;2024-01-30T13:20:26;11.00;;;4.50;;
19854;SDS011;10088;47.946;2.532;2024-01-30T13:22:51;9.17;;;4.37;;
19854;SDS011;10088;47.946;2.532;2024-01-30T13:25:17;8.70;;;5.00;;
19854;SDS011;10088;47.946;2.532;2024-01-30T13:27:42;7.33;;;4.80;;
19854;SDS011;10088;47.946;2.532;2024-01-30T13:30:08;5.80;;;4.03;;
19854;SDS011;10088;47.946;2.532;2024-01-30T13:32:34;5.60;;;4.23;;
19854;SDS011;10088;47.946;2.532;2024-01-30T13:34:59;10.67;;;4.40;;
19854;SDS011;10088;47.946;2.532;2024-01-30T13:37:24;6.00;;;4.00;;
19854;SDS011;10088;47.946;2.532;2024-01-30T13:39:50;11.33;;;4.33;;
19854;SDS011;10088;47.946;2.532;2024-01-30T13:42:15;5.73;;;4.20;;
19854;SDS011;10088;47.946;2.532;2024-01-30T13:44:40;6.50;;;3.77;;
19854;SDS011;10088;47.946;2.532;2024-01-30T13:47:06;9.73;;;4.10;;
19854;SDS011;10088;47.946;2.532;2024-01-30T13:49:31;7.00;;;3.53;;
19854;SDS011;10088;47.946;2.532;2024-01-30T13:51:56;7.37;;;4.37;;
19854;SDS011;10088;47.946;2.532;2024-01-30T13:54:21;5.00;;;3.63;;
19854;SDS011;10088;47.946;2.532;2024-01-30T13:56:47;8.10;;;4.10;;
19854;SDS011;10088;47.946;2.532;2024-01-30T13:59:12;6.70;;;3.70;;
19854;SDS011;10088;47.946;2.532;2024-01-30T14:01:37;10.97;;;4.37;;
19854;SDS011;10088;47.946;2.532;2024-01-30T14:04:03;9.27;;;4.37;;
19854;SDS011;10088;47.946;2.532;2024-01-30T14:06:28;7.33;;;3.90;;
19854;SDS011;10088;47.946;2.532;2024-01-30T14:08:53;6.70;;;4.13;;
19854;SDS011;10088;47.946;2.532;2024-01-30T14:11:18;5.43;;;3.60;;
19854;SDS011;10088;47.946;2.532;2024-01-30T14:13:44;9.20;;;4.00;;
19854;SDS011;10088;47.946;2.532;2024-01-30T14:16:09;6.87;;;4.37;;
19854;SDS011;10088;47.946;2.532;2024-01-30T14:18:34;4.90;;;3.60;;
19854;SDS011;10088;47.946;2.532;2024-01-30T14:21:00;5.10;;;4.17;;
19854;SDS011;10088;47.946;2.532;2024-01-30T14:23:25;6.23;;;3.93;;
19854;SDS011;10088;47.946;2.532;2024-01-30T14:25:50;7.90;;;4.30;;
19854;SDS011;10088;47.946;2.532;2024-01-30T14:28:16;6.47;;;4.00;;
19854;SDS011;10088;47.946;2.532;2024-01-30T14:30:42;7.30;;;3.73;;
19854;SDS011;10088;47.946;2.532;2024-01-30T14:33:07;6.57;;;4.00;;
19854;SDS011;10088;47.946;2.532;2024-01-30T14:35:32;9.13;;;3.90;;
19854;SDS011;10088;47.946;2.532;2024-01-30T14:37:58;5.17;;;3.70;;